sensor_id;sensor_type;location;lat;lon;timestamp;temperature;humidity
19805;DHT22;10062;51.052;13.756;2023-06-22T00:02:12;23.80;1.00
19805;DHT22;10062;51.052;13.756;2023-06-22T00:04:44;23.80;1.00
19805;DHT22;10062;51.052;13.756;2023-06-22T00:07:16;23.80;1.00
19805;DHT22;10062;51.052;13.756;2023-06-22T00:09:49;23.70;1.00
19805;DHT22;10062;51.052;13.756;2023-06-22T00:12:20;23.70;1.00
19805;DHT22;10062;51.052;13.756;2023-06-22T00:14:52;23.70;1.00
19805;DHT22;10062;51.052;13.756;2023-06-22T00:17:24;23.60;1.00
19805;DHT22;10062;51.052;13.756;2023-06-22T00:19:55;23.70;1.00
19805;DHT22;10062;51.052;13.756;2023-06-22T00:22:29;23.70;1.00
19805;DHT22;10062;51.052;13.756;2023-06-22T00:25:02;23.70;1.00
19805;DHT22;10062;51.052;13.756;2023-06-22T00:27:34;23.60;99.90
19805;DHT22;10062;51.052;13.756;2023-06-22T00:30:06;23.30;1.00
19805;DHT22;10062;51.052;13.756;2023-06-22T00:32:38;23.30;99.90
19805;DHT22;10062;51.052;13.756;2023-06-22T00:35:12;23.30;99.90
19805;DHT22;10062;51.052;13.756;2023-06-22T00:37:43;23.30;1.00
19805;DHT22;10062;51.052;13.756;2023-06-22T00:40:16;23.30;1.00
19805;DHT22;10062;51.052;13.756;2023-06-22T00:42:52;23.20;1.00
19805;DHT22;10062;51.052;13.756;2023-06-22T00:45:24;23.20;1.00
19805;DHT22;10062;51.052;13.756;2023-06-22T00:47:57;23.20;1.00
19805;DHT22;10062;51.052;13.756;2023-06-22T00:50:31;23.20;1.00
19805;DHT22;10062;51.052;13.756;2023-06-22T00:53:05;23.20;1.00
19805;DHT22;10062;51.052;13.756;2023-06-22T00:55:42;23.10;1.00
19805;DHT22;10062;51.052;13.756;2023-06-22T00:58:15;23.10;1.00
19805;DHT22;10062;51.052;13.756;2023-06-22T01:00:48;23.00;1.00
19805;DHT22;10062;51.052;13.756;2023-06-22T01:03:20;22.70;99.90
19805;DHT22;10062;51.052;13.756;2023-06-22T01:05:54;22.70;99.90
19805;DHT22;10062;51.052;13.756;2023-06-22T01:08:33;22.80;1.00
19805;DHT22;10062;51.052;13.756;2023-06-22T01:11:14;22.80;1.00
19805;DHT22;10062;51.052;13.756;2023-06-22T01:13:53;22.80;1.00
19805;DHT22;10062;51.052;13.756;2023-06-22T01:16:31;22.80;99.90
19805;DHT22;10062;51.052;13.756;2023-06-22T01:19:26;22.70;99.90
19805;DHT22;10062;51.052;13.756;2023-06-22T01:22:00;22.70;52.60
19805;DHT22;10062;51.052;13.756;2023-06-22T01:24:45;22.70;99.90
19805;DHT22;10062;51.052;13.756;2023-06-22T01:27:32;22.70;99.90
19805;DHT22;10062;51.052;13.756;2023-06-22T01:30:08;22.70;99.90
19805;DHT22;10062;51.052;13.756;2023-06-22T01:32:41;22.70;99.90
19805;DHT22;10062;51.052;13.756;2023-06-22T01:35:14;22.60;99.90
19805;DHT22;10062;51.052;13.756;2023-06-22T01:37:47;22.60;99.90
19805;DHT22;10062;51.052;13.756;2023-06-22T01:40:20;22.30;1.00
19805;DHT22;10062;51.052;13.756;2023-06-22T01:42:53;22.00;1.00
19805;DHT22;10062;51.052;13.756;2023-06-22T01:45:27;21.90;1.00
19805;DHT22;10062;51.052;13.756;2023-06-22T01:47:59;21.80;1.00
19805;DHT22;10062;51.052;13.756;2023-06-22T01:50:32;21.60;1.00
19805;DHT22;10062;51.052;13.756;2023-06-22T01:53:04;21.60;1.00
19805;DHT22;10062;51.052;13.756;2023-06-22T01:55:37;21.80;1.00
19805;DHT22;10062;51.052;13.756;2023-06-22T01:58:09;21.80;1.00
19805;DHT22;10062;51.052;13.756;2023-06-22T02:00:47;21.80;1.00
19805;DHT22;10062;51.052;13.756;2023-06-22T02:03:22;21.90;1.00
19805;DHT22;10062;51.052;13.756;2023-06-22T02:06:01;21.90;1.00
19805;DHT22;10062;51.052;13.756;2023-06-22T02:08:38;21.90;1.00
19805;DHT22;10062;51.052;13.756;2023-06-22T02:11:13;21.90;1.00
19805;DHT22;10062;51.052;13.756;2023-06-22T02:13:47;21.90;1.00
19805;DHT22;10062;51.052;13.756;2023-06-22T02:16:22;21.90;1.00
19805;DHT22;10062;51.052;13.756;2023-06-22T02:18:53;22.00;1.00
19805;DHT22;10062;51.052;13.756;2023-06-22T02:21:25;21.90;1.00
19805;DHT22;10062;51.052;13.756;2023-06-22T02:23:57;22.00;1.00
19805;DHT22;10062;51.052;13.756;2023-06-22T02:26:29;21.90;1.00
19805;DHT22;10062;51.052;13.756;2023-06-22T02:29:01;22.00;1.00
19805;DHT22;10062;51.052;13.756;2023-06-22T02:31:34;22.00;1.00
19805;DHT22;10062;51.052;13.756;2023-06-22T02:34:06;21.90;1.00
19805;DHT22;10062;51.052;13.756;2023-06-22T02:36:38;21.70;1.00
19805;DHT22;10062;51.052;13.756;2023-06-22T02:39:09;21.70;1.00
19805;DHT22;10062;51.052;13.756;2023-06-22T02:41:41;21.70;1.00
19805;DHT22;10062;51.052;13.756;2023-06-22T02:44:13;21.70;1.00
19805;DHT22;10062;51.052;13.756;2023-06-22T02:46:47;21.70;1.00
19805;DHT22;10062;51.052;13.756;2023-06-22T02:49:20;21.70;1.00
19805;DHT22;10062;51.052;13.756;2023-06-22T02:51:52;21.70;1.00
19805;DHT22;10062;51.052;13.756;2023-06-22T02:54:26;21.70;1.00
19805;DHT22;10062;51.052;13.756;2023-06-22T02:56:59;21.70;1.00
19805;DHT22;10062;51.052;13.756;2023-06-22T02:59:34;21.70;1.00
19805;DHT22;10062;51.052;13.756;2023-06-22T03:02:13;21.70;1.00
19805;DHT22;10062;51.052;13.756;2023-06-22T03:04:46;21.70;1.00
19805;DHT22;10062;51.052;13.756;2023-06-22T03:07:19;21.70;1.00
19805;DHT22;10062;51.052;13.756;2023-06-22T03:09:53;21.70;1.00
19805;DHT22;10062;51.052;13.756;2023-06-22T03:12:25;21.70;1.00
19805;DHT22;10062;51.052;13.756;2023-06-22T03:14:58;21.80;1.00
19805;DHT22;10062;51.052;13.756;2023-06-22T03:17:31;21.70;1.00
19805;DHT22;10062;51.052;13.756;2023-06-22T03:20:04;21.70;1.00
19805;DHT22;10062;51.052;13.756;2023-06-22T03:22:40;21.70;1.00
19805;DHT22;10062;51.052;13.756;2023-06-22T03:25:12;21.70;1.00
19805;DHT22;10062;51.052;13.756;2023-06-22T03:27:47;21.60;1.00
19805;DHT22;10062;51.052;13.756;2023-06-22T03:30:19;21.60;1.00
19805;DHT22;10062;51.052;13.756;2023-06-22T03:32:52;21.60;1.00
19805;DHT22;10062;51.052;13.756;2023-06-22T03:35:23;21.60;1.00
19805;DHT22;10062;51.052;13.756;2023-06-22T03:37:55;21.50;1.00
19805;DHT22;10062;51.052;13.756;2023-06-22T03:40:27;21.40;1.00
19805;DHT22;10062;51.052;13.756;2023-06-22T03:43:00;21.20;1.00
19805;DHT22;10062;51.052;13.756;2023-06-22T03:45:34;21.10;1.00
19805;DHT22;10062;51.052;13.756;2023-06-22T03:48:07;21.00;1.00
19805;DHT22;10062;51.052;13.756;2023-06-22T03:50:38;20.90;1.00
19805;DHT22;10062;51.052;13.756;2023-06-22T03:53:10;20.90;1.00
19805;DHT22;10062;51.052;13.756;2023-06-22T03:55:48;20.90;1.00
19805;DHT22;10062;51.052;13.756;2023-06-22T03:58:21;21.00;1.00
19805;DHT22;10062;51.052;13.756;2023-06-22T04:00:53;20.80;1.00
19805;DHT22;10062;51.052;13.756;2023-06-22T04:03:26;20.50;1.00
19805;DHT22;10062;51.052;13.756;2023-06-22T04:05:58;20.60;1.00
19805;DHT22;10062;51.052;13.756;2023-06-22T04:08:29;20.70;1.00
19805;DHT22;10062;51.052;13.756;2023-06-22T04:11:01;20.50;1.00
19805;DHT22;10062;51.052;13.756;2023-06-22T04:13:33;20.50;1.00
19805;DHT22;10062;51.052;13.756;2023-06-22T04:16:05;20.30;1.00
19805;DHT22;10062;51.052;13.756;2023-06-22T04:18:38;20.40;1.00
19805;DHT22;10062;51.052;13.756;2023-06-22T04:21:10;20.50;1.00
19805;DHT22;10062;51.052;13.756;2023-06-22T04:23:41;20.70;1.00
19805;DHT22;10062;51.052;13.756;2023-06-22T04:26:13;20.80;1.00
19805;DHT22;10062;51.052;13.756;2023-06-22T04:28:45;20.90;1.00
19805;DHT22;10062;51.052;13.756;2023-06-22T04:31:22;21.00;1.00
19805;DHT22;10062;51.052;13.756;2023-06-22T04:34:04;21.10;1.00
19805;DHT22;10062;51.052;13.756;2023-06-22T04:36:39;21.10;1.00
19805;DHT22;10062;51.052;13.756;2023-06-22T04:39:11;20.90;1.00
19805;DHT22;10062;51.052;13.756;2023-06-22T04:41:43;21.00;1.00
19805;DHT22;10062;51.052;13.756;2023-06-22T04:44:16;21.00;1.00
19805;DHT22;10062;51.052;13.756;2023-06-22T04:46:55;21.10;1.00
19805;DHT22;10062;51.052;13.756;2023-06-22T04:49:31;21.10;1.00
19805;DHT22;10062;51.052;13.756;2023-06-22T04:52:06;21.00;1.00
19805;DHT22;10062;51.052;13.756;2023-06-22T04:54:40;20.90;1.00
19805;DHT22;10062;51.052;13.756;2023-06-22T04:57:18;21.00;1.00
19805;DHT22;10062;51.052;13.756;2023-06-22T04:59:49;21.20;1.00
19805;DHT22;10062;51.052;13.756;2023-06-22T05:02:21;21.30;1.00
19805;DHT22;10062;51.052;13.756;2023-06-22T05:05:04;21.40;1.00
19805;DHT22;10062;51.052;13.756;2023-06-22T05:07:37;21.60;1.00
19805;DHT22;10062;51.052;13.756;2023-06-22T05:10:10;21.70;1.00
19805;DHT22;10062;51.052;13.756;2023-06-22T05:12:42;21.80;1.00
19805;DHT22;10062;51.052;13.756;2023-06-22T05:15:14;21.70;1.00
19805;DHT22;10062;51.052;13.756;2023-06-22T05:17:46;21.80;1.00
19805;DHT22;10062;51.052;13.756;2023-06-22T05:20:19;21.90;1.00
19805;DHT22;10062;51.052;13.756;2023-06-22T05:22:52;22.00;1.00
19805;DHT22;10062;51.052;13.756;2023-06-22T05:25:24;22.20;1.00
19805;DHT22;10062;51.052;13.756;2023-06-22T05:27:55;22.50;99.90
19805;DHT22;10062;51.052;13.756;2023-06-22T05:30:27;22.50;99.90
19805;DHT22;10062;51.052;13.756;2023-06-22T05:32:59;22.40;99.90
19805;DHT22;10062;51.052;13.756;2023-06-22T05:35:32;22.50;99.90
19805;DHT22;10062;51.052;13.756;2023-06-22T05:38:03;22.50;99.90
19805;DHT22;10062;51.052;13.756;2023-06-22T05:40:35;22.60;87.70
19805;DHT22;10062;51.052;13.756;2023-06-22T05:43:07;22.70;99.90
19805;DHT22;10062;51.052;13.756;2023-06-22T05:45:38;22.80;96.20
19805;DHT22;10062;51.052;13.756;2023-06-22T05:48:10;22.80;1.00
19805;DHT22;10062;51.052;13.756;2023-06-22T05:50:43;22.90;1.00
19805;DHT22;10062;51.052;13.756;2023-06-22T05:53:15;22.90;1.00
19805;DHT22;10062;51.052;13.756;2023-06-22T05:55:47;22.70;99.90
19805;DHT22;10062;51.052;13.756;2023-06-22T05:58:18;22.70;99.90
19805;DHT22;10062;51.052;13.756;2023-06-22T06:00:50;22.80;99.90
19805;DHT22;10062;51.052;13.756;2023-06-22T06:03:22;22.90;1.00
19805;DHT22;10062;51.052;13.756;2023-06-22T06:05:55;23.00;1.00
19805;DHT22;10062;51.052;13.756;2023-06-22T06:08:26;23.10;1.00
19805;DHT22;10062;51.052;13.756;2023-06-22T06:10:58;23.20;1.00
19805;DHT22;10062;51.052;13.756;2023-06-22T06:13:30;23.20;1.00
19805;DHT22;10062;51.052;13.756;2023-06-22T06:16:01;23.20;1.00
19805;DHT22;10062;51.052;13.756;2023-06-22T06:18:33;23.20;99.90
19805;DHT22;10062;51.052;13.756;2023-06-22T06:21:06;23.10;1.00
19805;DHT22;10062;51.052;13.756;2023-06-22T06:23:38;23.20;1.00
19805;DHT22;10062;51.052;13.756;2023-06-22T06:26:09;23.40;1.00
19805;DHT22;10062;51.052;13.756;2023-06-22T06:28:41;23.50;1.00
19805;DHT22;10062;51.052;13.756;2023-06-22T06:31:12;23.50;1.00
19805;DHT22;10062;51.052;13.756;2023-06-22T06:33:47;23.70;1.00
19805;DHT22;10062;51.052;13.756;2023-06-22T06:36:20;23.90;1.00
19805;DHT22;10062;51.052;13.756;2023-06-22T06:38:52;24.00;1.00
19805;DHT22;10062;51.052;13.756;2023-06-22T06:41:24;24.10;1.00
19805;DHT22;10062;51.052;13.756;2023-06-22T06:43:55;24.30;99.90
19805;DHT22;10062;51.052;13.756;2023-06-22T06:46:27;24.50;1.00
19805;DHT22;10062;51.052;13.756;2023-06-22T06:48:59;24.60;1.00
19805;DHT22;10062;51.052;13.756;2023-06-22T06:51:32;24.80;99.90
19805;DHT22;10062;51.052;13.756;2023-06-22T06:54:03;24.90;99.90
19805;DHT22;10062;51.052;13.756;2023-06-22T06:56:35;24.50;99.90
19805;DHT22;10062;51.052;13.756;2023-06-22T06:59:07;24.60;1.00
19805;DHT22;10062;51.052;13.756;2023-06-22T07:01:39;24.80;1.00
19805;DHT22;10062;51.052;13.756;2023-06-22T07:04:10;24.80;1.00
19805;DHT22;10062;51.052;13.756;2023-06-22T07:06:43;24.80;1.00
19805;DHT22;10062;51.052;13.756;2023-06-22T07:09:15;24.90;1.00
19805;DHT22;10062;51.052;13.756;2023-06-22T07:11:49;25.10;99.90
19805;DHT22;10062;51.052;13.756;2023-06-22T07:14:20;25.40;1.00
19805;DHT22;10062;51.052;13.756;2023-06-22T07:16:52;25.50;99.90
19805;DHT22;10062;51.052;13.756;2023-06-22T07:19:27;25.50;99.90
19805;DHT22;10062;51.052;13.756;2023-06-22T07:22:00;25.60;99.90
19805;DHT22;10062;51.052;13.756;2023-06-22T07:24:32;25.90;1.00
19805;DHT22;10062;51.052;13.756;2023-06-22T07:27:04;26.10;1.00
19805;DHT22;10062;51.052;13.756;2023-06-22T07:29:37;26.40;1.00
19805;DHT22;10062;51.052;13.756;2023-06-22T07:32:10;26.70;99.90
19805;DHT22;10062;51.052;13.756;2023-06-22T07:34:42;27.10;1.00
19805;DHT22;10062;51.052;13.756;2023-06-22T07:37:15;27.40;99.90
19805;DHT22;10062;51.052;13.756;2023-06-22T07:39:47;27.50;1.00
19805;DHT22;10062;51.052;13.756;2023-06-22T07:42:21;27.50;1.00
19805;DHT22;10062;51.052;13.756;2023-06-22T07:44:53;27.70;1.00
19805;DHT22;10062;51.052;13.756;2023-06-22T07:47:25;27.70;1.00
19805;DHT22;10062;51.052;13.756;2023-06-22T07:49:59;28.10;1.00
19805;DHT22;10062;51.052;13.756;2023-06-22T07:52:33;28.30;1.00
19805;DHT22;10062;51.052;13.756;2023-06-22T07:55:05;28.40;1.00
19805;DHT22;10062;51.052;13.756;2023-06-22T07:57:36;28.60;1.00
19805;DHT22;10062;51.052;13.756;2023-06-22T08:00:09;28.70;1.00
19805;DHT22;10062;51.052;13.756;2023-06-22T08:02:45;28.90;1.00
19805;DHT22;10062;51.052;13.756;2023-06-22T08:05:17;29.00;99.90
19805;DHT22;10062;51.052;13.756;2023-06-22T08:07:50;29.20;99.90
19805;DHT22;10062;51.052;13.756;2023-06-22T08:10:22;29.40;68.90
19805;DHT22;10062;51.052;13.756;2023-06-22T08:12:53;29.60;1.00
19805;DHT22;10062;51.052;13.756;2023-06-22T08:15:26;29.40;1.00
19805;DHT22;10062;51.052;13.756;2023-06-22T08:17:58;29.20;1.00
19805;DHT22;10062;51.052;13.756;2023-06-22T08:20:31;29.50;1.00
19805;DHT22;10062;51.052;13.756;2023-06-22T08:23:04;29.80;1.00
19805;DHT22;10062;51.052;13.756;2023-06-22T08:25:36;29.90;1.00
19805;DHT22;10062;51.052;13.756;2023-06-22T08:28:08;30.20;1.00
19805;DHT22;10062;51.052;13.756;2023-06-22T08:30:40;30.20;1.00
19805;DHT22;10062;51.052;13.756;2023-06-22T08:33:11;30.30;1.00
19805;DHT22;10062;51.052;13.756;2023-06-22T08:35:44;30.20;1.00
19805;DHT22;10062;51.052;13.756;2023-06-22T08:38:17;30.30;1.00
19805;DHT22;10062;51.052;13.756;2023-06-22T08:40:49;30.40;99.90
19805;DHT22;10062;51.052;13.756;2023-06-22T08:43:20;30.50;99.90
19805;DHT22;10062;51.052;13.756;2023-06-22T08:45:52;30.60;99.90
19805;DHT22;10062;51.052;13.756;2023-06-22T08:48:24;30.30;99.90
19805;DHT22;10062;51.052;13.756;2023-06-22T08:50:55;30.50;99.90
19805;DHT22;10062;51.052;13.756;2023-06-22T08:53:28;30.60;99.90
19805;DHT22;10062;51.052;13.756;2023-06-22T08:56:00;30.70;99.90
19805;DHT22;10062;51.052;13.756;2023-06-22T08:58:32;30.80;99.90
19805;DHT22;10062;51.052;13.756;2023-06-22T09:01:03;30.90;99.90
19805;DHT22;10062;51.052;13.756;2023-06-22T09:03:35;31.00;99.90
19805;DHT22;10062;51.052;13.756;2023-06-22T09:06:08;30.90;99.90
19805;DHT22;10062;51.052;13.756;2023-06-22T09:08:42;31.10;99.90
19805;DHT22;10062;51.052;13.756;2023-06-22T09:11:13;31.20;99.90
19805;DHT22;10062;51.052;13.756;2023-06-22T09:13:45;31.50;99.90
19805;DHT22;10062;51.052;13.756;2023-06-22T09:16:17;31.70;99.90
19805;DHT22;10062;51.052;13.756;2023-06-22T09:18:49;31.70;96.30
19805;DHT22;10062;51.052;13.756;2023-06-22T09:21:21;31.80;76.80
19805;DHT22;10062;51.052;13.756;2023-06-22T09:23:54;31.90;68.20
19805;DHT22;10062;51.052;13.756;2023-06-22T09:26:25;31.80;19.70
19805;DHT22;10062;51.052;13.756;2023-06-22T09:28:57;31.80;1.00
19805;DHT22;10062;51.052;13.756;2023-06-22T09:31:29;31.80;7.80
19805;DHT22;10062;51.052;13.756;2023-06-22T09:34:01;32.00;1.00
19805;DHT22;10062;51.052;13.756;2023-06-22T09:36:32;32.10;1.00
19805;DHT22;10062;51.052;13.756;2023-06-22T09:39:05;32.20;1.00
19805;DHT22;10062;51.052;13.756;2023-06-22T09:41:37;32.30;1.00
19805;DHT22;10062;51.052;13.756;2023-06-22T09:44:09;32.50;1.00
19805;DHT22;10062;51.052;13.756;2023-06-22T09:46:40;32.70;1.00
19805;DHT22;10062;51.052;13.756;2023-06-22T09:49:12;32.20;1.00
19805;DHT22;10062;51.052;13.756;2023-06-22T09:51:44;32.10;1.00
19805;DHT22;10062;51.052;13.756;2023-06-22T09:54:17;32.40;1.00
19805;DHT22;10062;51.052;13.756;2023-06-22T09:56:48;32.30;1.00
19805;DHT22;10062;51.052;13.756;2023-06-22T09:59:20;32.40;1.00
19805;DHT22;10062;51.052;13.756;2023-06-22T10:01:51;32.30;1.00
19805;DHT22;10062;51.052;13.756;2023-06-22T10:04:23;32.70;1.00
19805;DHT22;10062;51.052;13.756;2023-06-22T10:06:56;32.70;1.00
19805;DHT22;10062;51.052;13.756;2023-06-22T10:09:29;33.10;1.00
19805;DHT22;10062;51.052;13.756;2023-06-22T10:12:00;32.20;1.00
19805;DHT22;10062;51.052;13.756;2023-06-22T10:14:32;33.50;1.00
19805;DHT22;10062;51.052;13.756;2023-06-22T10:17:04;33.50;1.00
19805;DHT22;10062;51.052;13.756;2023-06-22T10:19:37;33.50;1.00
19805;DHT22;10062;51.052;13.756;2023-06-22T10:22:09;33.50;1.00
19805;DHT22;10062;51.052;13.756;2023-06-22T10:24:50;33.50;1.00
19805;DHT22;10062;51.052;13.756;2023-06-22T10:27:21;34.40;1.00
19805;DHT22;10062;51.052;13.756;2023-06-22T10:29:53;35.30;1.00
19805;DHT22;10062;51.052;13.756;2023-06-22T10:32:25;33.60;1.00
19805;DHT22;10062;51.052;13.756;2023-06-22T10:34:58;33.50;1.00
19805;DHT22;10062;51.052;13.756;2023-06-22T10:37:30;33.50;1.00
19805;DHT22;10062;51.052;13.756;2023-06-22T10:40:07;33.60;1.00
19805;DHT22;10062;51.052;13.756;2023-06-22T10:42:39;33.70;1.00
19805;DHT22;10062;51.052;13.756;2023-06-22T10:45:11;33.70;1.00
19805;DHT22;10062;51.052;13.756;2023-06-22T10:47:44;33.70;1.00
19805;DHT22;10062;51.052;13.756;2023-06-22T10:50:15;33.60;1.00
19805;DHT22;10062;51.052;13.756;2023-06-22T10:52:47;33.30;1.00
19805;DHT22;10062;51.052;13.756;2023-06-22T10:55:20;33.40;1.00
19805;DHT22;10062;51.052;13.756;2023-06-22T10:57:52;33.00;1.00
19805;DHT22;10062;51.052;13.756;2023-06-22T11:00:23;33.00;1.00
19805;DHT22;10062;51.052;13.756;2023-06-22T11:02:55;33.00;1.00
19805;DHT22;10062;51.052;13.756;2023-06-22T11:05:28;32.90;1.00
19805;DHT22;10062;51.052;13.756;2023-06-22T11:08:00;32.90;1.00
19805;DHT22;10062;51.052;13.756;2023-06-22T11:10:33;32.80;1.00
19805;DHT22;10062;51.052;13.756;2023-06-22T11:13:05;32.90;1.00
19805;DHT22;10062;51.052;13.756;2023-06-22T11:15:40;32.80;1.00
19805;DHT22;10062;51.052;13.756;2023-06-22T11:18:11;32.90;1.00
19805;DHT22;10062;51.052;13.756;2023-06-22T11:20:43;33.10;1.00
19805;DHT22;10062;51.052;13.756;2023-06-22T11:23:15;33.30;1.00
19805;DHT22;10062;51.052;13.756;2023-06-22T11:25:48;33.50;1.00
19805;DHT22;10062;51.052;13.756;2023-06-22T11:28:19;33.50;1.00
19805;DHT22;10062;51.052;13.756;2023-06-22T11:30:51;33.60;1.00
19805;DHT22;10062;51.052;13.756;2023-06-22T11:33:23;33.60;1.00
19805;DHT22;10062;51.052;13.756;2023-06-22T11:35:55;33.50;1.00
19805;DHT22;10062;51.052;13.756;2023-06-22T11:38:28;33.30;1.00
19805;DHT22;10062;51.052;13.756;2023-06-22T11:41:02;33.30;1.00
19805;DHT22;10062;51.052;13.756;2023-06-22T11:43:34;33.40;1.00
19805;DHT22;10062;51.052;13.756;2023-06-22T11:46:06;33.40;1.00
19805;DHT22;10062;51.052;13.756;2023-06-22T11:48:38;33.50;1.00
19805;DHT22;10062;51.052;13.756;2023-06-22T11:51:09;33.70;1.00
19805;DHT22;10062;51.052;13.756;2023-06-22T11:53:41;34.00;1.00
19805;DHT22;10062;51.052;13.756;2023-06-22T11:56:14;33.90;1.00
19805;DHT22;10062;51.052;13.756;2023-06-22T11:58:46;33.70;1.00
19805;DHT22;10062;51.052;13.756;2023-06-22T12:01:17;33.70;1.00
19805;DHT22;10062;51.052;13.756;2023-06-22T12:03:49;33.60;1.00
19805;DHT22;10062;51.052;13.756;2023-06-22T12:06:21;33.80;1.00
19805;DHT22;10062;51.052;13.756;2023-06-22T12:08:53;33.90;1.00
19805;DHT22;10062;51.052;13.756;2023-06-22T12:11:26;34.00;1.00
19805;DHT22;10062;51.052;13.756;2023-06-22T12:13:57;34.50;1.00
19805;DHT22;10062;51.052;13.756;2023-06-22T12:16:32;34.70;1.00
19805;DHT22;10062;51.052;13.756;2023-06-22T12:19:03;34.90;1.00
19805;DHT22;10062;51.052;13.756;2023-06-22T12:21:36;35.00;1.00
19805;DHT22;10062;51.052;13.756;2023-06-22T12:24:08;35.20;1.00
19805;DHT22;10062;51.052;13.756;2023-06-22T12:26:41;35.70;1.00
19805;DHT22;10062;51.052;13.756;2023-06-22T12:29:13;35.00;1.00
19805;DHT22;10062;51.052;13.756;2023-06-22T12:31:44;35.00;1.00
19805;DHT22;10062;51.052;13.756;2023-06-22T12:34:16;35.10;1.00
19805;DHT22;10062;51.052;13.756;2023-06-22T12:36:48;35.20;1.00
19805;DHT22;10062;51.052;13.756;2023-06-22T12:39:20;35.60;1.00
19805;DHT22;10062;51.052;13.756;2023-06-22T12:41:53;35.50;1.00
19805;DHT22;10062;51.052;13.756;2023-06-22T12:44:25;35.30;1.00
19805;DHT22;10062;51.052;13.756;2023-06-22T12:46:56;35.30;1.00
19805;DHT22;10062;51.052;13.756;2023-06-22T12:49:28;35.30;1.00
19805;DHT22;10062;51.052;13.756;2023-06-22T12:51:59;35.50;1.00
19805;DHT22;10062;51.052;13.756;2023-06-22T12:54:31;35.50;1.00
19805;DHT22;10062;51.052;13.756;2023-06-22T12:57:05;35.30;1.00
19805;DHT22;10062;51.052;13.756;2023-06-22T12:59:37;35.20;1.00
19805;DHT22;10062;51.052;13.756;2023-06-22T13:02:08;35.10;1.00
19805;DHT22;10062;51.052;13.756;2023-06-22T13:04:40;35.20;1.00
19805;DHT22;10062;51.052;13.756;2023-06-22T13:07:13;35.30;1.00
19805;DHT22;10062;51.052;13.756;2023-06-22T13:09:45;35.50;1.00
19805;DHT22;10062;51.052;13.756;2023-06-22T13:12:19;35.70;1.00
19805;DHT22;10062;51.052;13.756;2023-06-22T13:14:51;36.00;1.00
19805;DHT22;10062;51.052;13.756;2023-06-22T13:17:23;36.10;1.00
19805;DHT22;10062;51.052;13.756;2023-06-22T13:19:54;36.20;1.00
19805;DHT22;10062;51.052;13.756;2023-06-22T13:22:28;36.30;1.00
19805;DHT22;10062;51.052;13.756;2023-06-22T13:25:00;36.40;1.00
19805;DHT22;10062;51.052;13.756;2023-06-22T13:27:34;36.60;1.00
19805;DHT22;10062;51.052;13.756;2023-06-22T13:30:06;36.70;1.00
19805;DHT22;10062;51.052;13.756;2023-06-22T13:32:38;36.40;1.00
19805;DHT22;10062;51.052;13.756;2023-06-22T13:35:12;36.40;1.00
19805;DHT22;10062;51.052;13.756;2023-06-22T13:37:43;36.60;1.00
19805;DHT22;10062;51.052;13.756;2023-06-22T13:40:15;36.70;1.00
19805;DHT22;10062;51.052;13.756;2023-06-22T13:42:48;36.50;1.00
19805;DHT22;10062;51.052;13.756;2023-06-22T13:45:20;36.20;1.00
19805;DHT22;10062;51.052;13.756;2023-06-22T13:47:52;36.30;1.00
19805;DHT22;10062;51.052;13.756;2023-06-22T13:50:23;36.40;1.00
19805;DHT22;10062;51.052;13.756;2023-06-22T13:52:55;36.60;1.00
19805;DHT22;10062;51.052;13.756;2023-06-22T13:55:27;36.70;1.00
19805;DHT22;10062;51.052;13.756;2023-06-22T13:58:00;36.70;1.00
19805;DHT22;10062;51.052;13.756;2023-06-22T14:00:31;36.80;1.00
19805;DHT22;10062;51.052;13.756;2023-06-22T14:03:03;36.90;1.00
19805;DHT22;10062;51.052;13.756;2023-06-22T14:05:35;36.80;1.00
19805;DHT22;10062;51.052;13.756;2023-06-22T14:08:06;36.70;1.00
19805;DHT22;10062;51.052;13.756;2023-06-22T14:10:38;36.40;1.00
19805;DHT22;10062;51.052;13.756;2023-06-22T14:13:11;36.50;1.00
19805;DHT22;10062;51.052;13.756;2023-06-22T14:15:42;36.80;1.00
19805;DHT22;10062;51.052;13.756;2023-06-22T14:18:14;37.10;1.00
19805;DHT22;10062;51.052;13.756;2023-06-22T14:20:46;37.10;1.00
19805;DHT22;10062;51.052;13.756;2023-06-22T14:23:18;36.90;1.00
19805;DHT22;10062;51.052;13.756;2023-06-22T14:25:49;36.70;1.00
19805;DHT22;10062;51.052;13.756;2023-06-22T14:28:22;36.40;1.00
19805;DHT22;10062;51.052;13.756;2023-06-22T14:30:54;36.00;1.00
19805;DHT22;10062;51.052;13.756;2023-06-22T14:33:26;35.80;1.00
19805;DHT22;10062;51.052;13.756;2023-06-22T14:35:58;35.60;1.00
19805;DHT22;10062;51.052;13.756;2023-06-22T14:38:30;35.40;1.00
19805;DHT22;10062;51.052;13.756;2023-06-22T14:41:02;35.00;1.00
19805;DHT22;10062;51.052;13.756;2023-06-22T14:43:35;34.70;1.00
19805;DHT22;10062;51.052;13.756;2023-06-22T14:46:06;34.90;1.00
19805;DHT22;10062;51.052;13.756;2023-06-22T14:48:38;34.90;1.00
19805;DHT22;10062;51.052;13.756;2023-06-22T14:51:11;34.90;1.00
19805;DHT22;10062;51.052;13.756;2023-06-22T14:53:44;35.10;1.00
19805;DHT22;10062;51.052;13.756;2023-06-22T14:56:15;34.90;1.00
19805;DHT22;10062;51.052;13.756;2023-06-22T14:58:48;35.00;1.00
19805;DHT22;10062;51.052;13.756;2023-06-22T15:01:20;35.00;1.00
19805;DHT22;10062;51.052;13.756;2023-06-22T15:03:52;35.00;1.00
19805;DHT22;10062;51.052;13.756;2023-06-22T15:06:24;35.00;1.00
19805;DHT22;10062;51.052;13.756;2023-06-22T15:08:55;34.90;1.00
19805;DHT22;10062;51.052;13.756;2023-06-22T15:11:27;34.80;1.00
19805;DHT22;10062;51.052;13.756;2023-06-22T15:14:00;34.80;1.00
19805;DHT22;10062;51.052;13.756;2023-06-22T15:16:32;34.80;1.00
19805;DHT22;10062;51.052;13.756;2023-06-22T15:19:03;34.80;1.00
19805;DHT22;10062;51.052;13.756;2023-06-22T15:21:35;34.70;1.00
19805;DHT22;10062;51.052;13.756;2023-06-22T15:24:07;34.50;1.00
19805;DHT22;10062;51.052;13.756;2023-06-22T15:26:39;34.40;1.00
19805;DHT22;10062;51.052;13.756;2023-06-22T15:29:12;34.30;1.00
19805;DHT22;10062;51.052;13.756;2023-06-22T15:31:43;34.30;1.00
19805;DHT22;10062;51.052;13.756;2023-06-22T15:34:15;34.10;1.00
19805;DHT22;10062;51.052;13.756;2023-06-22T15:36:47;34.10;1.00
19805;DHT22;10062;51.052;13.756;2023-06-22T15:39:18;34.10;1.00
19805;DHT22;10062;51.052;13.756;2023-06-22T15:41:50;34.00;1.00
19805;DHT22;10062;51.052;13.756;2023-06-22T15:44:25;34.00;1.00
19805;DHT22;10062;51.052;13.756;2023-06-22T15:46:57;33.80;1.00
19805;DHT22;10062;51.052;13.756;2023-06-22T15:49:29;33.50;1.00
19805;DHT22;10062;51.052;13.756;2023-06-22T15:52:00;33.60;1.00
19805;DHT22;10062;51.052;13.756;2023-06-22T15:54:32;33.40;1.00
19805;DHT22;10062;51.052;13.756;2023-06-22T15:57:04;33.40;1.00
19805;DHT22;10062;51.052;13.756;2023-06-22T15:59:38;33.30;1.00
19805;DHT22;10062;51.052;13.756;2023-06-22T16:02:11;33.30;1.00